createdAt,value
2022-11-06T00:02:11.805Z,1
2022-11-06T00:12:10.196Z,1
2022-11-06T00:22:10.317Z,1
2022-11-06T00:32:10.188Z,1
2022-11-06T00:42:10.314Z,1
2022-11-06T00:52:10.392Z,1
2022-11-06T01:02:10.467Z,1
2022-11-06T01:12:13.160Z,1
2022-11-06T01:22:10.311Z,1
2022-11-06T01:32:10.419Z,1
2022-11-06T01:42:10.307Z,1
2022-11-06T01:52:10.384Z,1
2022-11-06T02:02:10.356Z,1
2022-11-06T02:12:10.389Z,1
2022-11-06T02:22:10.311Z,1
2022-11-06T02:32:10.375Z,1
2022-11-06T02:42:10.499Z,1
2022-11-06T02:52:10.441Z,1
2022-11-06T03:02:10.717Z,1
2022-11-06T03:12:10.375Z,1
2022-11-06T03:22:10.501Z,1
2022-11-06T03:32:10.371Z,1
2022-11-06T03:42:10.493Z,1
2022-11-06T03:52:10.558Z,1
2022-11-06T04:02:10.701Z,1
2022-11-06T04:12:10.618Z,1
2022-11-06T04:22:10.567Z,1
2022-11-06T04:32:10.561Z,1
2022-11-06T04:42:10.483Z,1
2022-11-06T04:52:10.545Z,1
2022-11-06T05:02:10.519Z,1
2022-11-06T05:12:10.550Z,1
2022-11-06T05:22:10.762Z,1
2022-11-06T05:32:10.547Z,1
2022-11-06T05:42:10.718Z,1
2022-11-06T05:52:10.554Z,2
2022-11-06T06:02:10.844Z,1
2022-11-06T06:12:10.558Z,1
2022-11-06T06:22:10.677Z,1
2022-11-06T06:32:10.547Z,1
2022-11-06T06:42:10.692Z,1
2022-11-06T06:52:10.745Z,6
2022-11-06T07:02:10.798Z,19
2022-11-06T07:12:10.821Z,32
2022-11-06T07:22:10.691Z,46
2022-11-06T07:32:10.763Z,58
2022-11-06T07:42:10.685Z,74
2022-11-06T07:52:10.791Z,77
2022-11-06T08:02:10.840Z,83
2022-11-06T08:12:10.831Z,84
2022-11-06T08:22:10.700Z,82
2022-11-06T08:32:10.782Z,81
2022-11-06T08:42:10.707Z,80
2022-11-06T08:52:10.779Z,81
2022-11-06T09:02:10.972Z,86
2022-11-06T09:12:10.791Z,89
2022-11-06T09:22:10.921Z,89
2022-11-06T09:32:10.817Z,91
2022-11-06T09:42:10.993Z,92
2022-11-06T09:52:10.780Z,94
2022-11-06T10:02:11.047Z,94
2022-11-06T10:12:10.781Z,94
2022-11-06T10:22:10.912Z,94
2022-11-06T10:32:10.779Z,94
2022-11-06T10:42:11.012Z,95
2022-11-06T10:52:10.994Z,95
2022-11-06T11:02:11.041Z,95
2022-11-06T11:12:10.996Z,95
2022-11-06T11:22:10.890Z,95
2022-11-06T11:32:10.959Z,95
2022-11-06T11:42:10.888Z,95
2022-11-06T11:52:10.975Z,94
2022-11-06T12:02:11.239Z,93
2022-11-06T12:12:10.961Z,93
2022-11-06T12:22:11.100Z,94
2022-11-06T12:32:10.979Z,93
2022-11-06T12:42:11.101Z,90
2022-11-06T12:52:10.972Z,93
2022-11-06T13:02:11.257Z,94
2022-11-06T13:12:10.939Z,93
2022-11-06T13:22:11.157Z,89
2022-11-06T13:32:11.150Z,87
2022-11-06T13:42:11.070Z,86
2022-11-06T13:52:11.098Z,89
2022-11-06T14:02:11.213Z,93
2022-11-06T14:12:14.903Z,92
2022-11-06T14:32:11.206Z,91
2022-11-06T14:42:11.124Z,91
2022-11-06T14:52:11.228Z,92
2022-11-06T15:12:11.263Z,92
2022-11-06T15:22:11.089Z,91
2022-11-06T15:52:11.257Z,79
2022-11-06T16:22:11.313Z,61
2022-11-06T16:32:11.204Z,52
2022-11-06T16:42:11.409Z,34
2022-11-06T16:52:11.200Z,17
2022-11-06T17:02:11.423Z,6
2022-11-06T17:12:11.177Z,1
2022-11-06T17:22:11.364Z,1
2022-11-06T17:32:11.377Z,1
2022-11-06T17:42:11.342Z,1
2022-11-06T17:52:11.599Z,1
2022-11-06T18:02:11.405Z,1
2022-11-06T18:12:11.371Z,1
2022-11-06T18:22:11.382Z,1
2022-11-06T18:32:11.649Z,1
2022-11-06T18:42:11.529Z,1
2022-11-06T18:52:11.359Z,1
2022-11-06T19:02:11.556Z,1
2022-11-06T19:12:11.462Z,1
2022-11-06T19:22:11.450Z,1
2022-11-06T19:32:11.416Z,1
2022-11-06T19:42:11.641Z,1
2022-11-06T19:52:40.959Z,1
2022-11-06T20:02:11.617Z,1
2022-11-06T20:12:11.403Z,1
2022-11-06T20:22:11.674Z,1
2022-11-06T20:32:12.615Z,1
2022-11-06T20:42:11.585Z,1
2022-11-06T20:52:13.945Z,1
2022-11-06T21:02:11.739Z,1
2022-11-06T21:12:11.422Z,1
2022-11-06T21:22:11.556Z,1
2022-11-06T21:32:11.624Z,1
2022-11-06T21:42:11.529Z,1
2022-11-06T21:52:11.616Z,1
2022-11-06T22:02:11.608Z,1
2022-11-06T22:12:11.649Z,1
2022-11-06T22:22:11.574Z,1
2022-11-06T22:32:11.610Z,1
2022-11-06T22:42:11.521Z,1
2022-11-06T22:52:11.659Z,1
2022-11-06T23:02:11.789Z,1
2022-11-06T23:12:11.624Z,1
2022-11-06T23:22:11.941Z,1
2022-11-06T23:32:11.601Z,1
2022-11-06T23:42:11.723Z,1
2022-11-06T23:52:11.594Z,1
